Time;durP1;ratioP1;P1;durP2;ratioP2;P2;SDS_P1;SDS_P2;PMS_P1;PMS_P2;Temp;Humidity;BMP_temperature;BMP_pressure;BME280_temperature;BME280_humidity;BME280_pressure;Samples;Min_cycle;Max_cycle;Signal;HPM_P1;HPM_P2
2021/01/22 00:01:19;;;;;;;98.43;48.30;;;1.40;92.80;;;;;;5013216;28;20026;-90
2021/01/22 00:03:44;;;;;;;93.75;45.33;;;1.40;92.80;;;;;;5013263;28;20116;-90
2021/01/22 00:06:11;;;;;;;106.30;50.33;;;1.40;92.80;;;;;;5013145;28;20034;-91
2021/01/22 00:08:38;;;;;;;98.28;48.80;;;1.30;93.00;;;;;;5013301;28;20468;-92
2021/01/22 00:11:04;;;;;;;99.22;48.72;;;1.30;93.00;;;;;;5013252;28;20049;-91
2021/01/22 00:13:29;;;;;;;108.45;48.20;;;1.30;93.10;;;;;;5013349;28;20026;-91
2021/01/22 00:15:55;;;;;;;92.85;44.45;;;1.30;93.20;;;;;;5013198;28;20472;-90
2021/01/22 00:18:21;;;;;;;108.72;49.63;;;1.40;93.10;;;;;;5014175;28;20025;-90
2021/01/22 00:20:46;;;;;;;109.63;52.58;;;1.40;92.90;;;;;;5013445;28;20467;-90
2021/01/22 00:23:12;;;;;;;101.38;48.47;;;1.30;93.10;;;;;;5014325;28;20030;-89
2021/01/22 00:25:38;;;;;;;103.65;47.75;;;1.30;93.10;;;;;;5013077;28;20378;-90
2021/01/22 00:28:03;;;;;;;103.20;48.03;;;1.30;93.00;;;;;;5014293;28;20026;-90
2021/01/22 00:30:29;;;;;;;106.60;51.00;;;1.30;93.00;;;;;;5013214;28;20037;-90
2021/01/22 00:32:55;;;;;;;127.93;56.88;;;1.40;93.00;;;;;;5013141;28;20026;-90
2021/01/22 00:35:21;;;;;;;112.85;51.15;;;1.30;93.00;;;;;;5013041;28;20361;-91
2021/01/22 00:37:46;;;;;;;124.85;55.22;;;1.40;92.90;;;;;;5014388;28;20026;-90
2021/01/22 00:40:12;;;;;;;98.95;44.75;;;1.40;93.00;;;;;;5014378;28;20388;-91
2021/01/22 00:42:38;;;;;;;113.00;51.35;;;1.40;92.90;;;;;;5014342;28;20030;-90
2021/01/22 00:45:05;;;;;;;121.20;51.50;;;1.40;93.00;;;;;;5012908;28;20033;-91
2021/01/22 00:47:31;;;;;;;93.80;44.28;;;1.40;92.80;;;;;;5012871;28;20032;-90
2021/01/22 00:49:57;;;;;;;104.72;48.25;;;1.40;92.70;;;;;;5012728;28;20050;-91
2021/01/22 00:52:22;;;;;;;113.45;52.42;;;1.50;92.70;;;;;;5014823;28;20089;-91
2021/01/22 00:54:48;;;;;;;115.13;50.97;;;1.40;92.90;;;;;;5017326;28;20040;-90
2021/01/22 00:57:14;;;;;;;107.95;46.95;;;1.40;92.90;;;;;;5016270;28;20029;-90
2021/01/22 00:59:39;;;;;;;114.93;49.70;;;1.30;93.00;;;;;;5016136;28;20380;-90
2021/01/22 01:02:05;;;;;;;100.72;44.38;;;1.30;93.00;;;;;;5016255;28;20079;-90
2021/01/22 01:04:31;;;;;;;106.80;46.65;;;1.30;92.90;;;;;;5016056;28;20029;-90
2021/01/22 01:06:57;;;;;;;106.15;45.15;;;1.30;92.90;;;;;;5016908;28;20033;-91
2021/01/22 01:09:22;;;;;;;88.53;39.20;;;1.30;92.90;;;;;;5017169;28;20022;-91
2021/01/22 01:11:48;;;;;;;110.95;45.33;;;1.30;93.00;;;;;;5015841;28;20030;-90
2021/01/22 01:14:14;;;;;;;111.80;46.28;;;1.30;93.10;;;;;;5017007;28;20057;-90
2021/01/22 01:16:39;;;;;;;99.20;41.97;;;1.30;93.30;;;;;;5015727;28;20030;-90
2021/01/22 01:19:05;;;;;;;98.75;40.50;;;1.30;93.30;;;;;;5015689;28;20033;-90
2021/01/22 01:21:31;;;;;;;91.63;39.03;;;1.30;93.30;;;;;;5016154;28;20068;-90
2021/01/22 01:23:57;;;;;;;95.10;39.85;;;1.20;93.20;;;;;;5015773;28;20034;-90
2021/01/22 01:26:23;;;;;;;82.22;35.25;;;1.20;93.10;;;;;;5015671;28;20036;-89
2021/01/22 01:28:49;;;;;;;93.95;40.70;;;1.30;93.10;;;;;;5015597;28;20033;-90
2021/01/22 01:31:15;;;;;;;91.88;40.70;;;1.20;93.20;;;;;;5015614;28;20018;-90
2021/01/22 01:33:41;;;;;;;86.65;38.08;;;1.20;93.20;;;;;;5015315;28;20049;-90
2021/01/22 01:36:07;;;;;;;90.45;38.15;;;1.20;93.40;;;;;;5015453;28;20033;-89
2021/01/22 01:38:33;;;;;;;96.55;41.38;;;1.10;93.30;;;;;;5015382;28;20057;-90
2021/01/22 01:40:58;;;;;;;94.97;44.28;;;1.10;93.30;;;;;;5015508;28;20080;-90
2021/01/22 01:43:24;;;;;;;86.75;38.35;;;1.10;93.70;;;;;;5016700;28;20022;-90
2021/01/22 01:45:50;;;;;;;92.20;41.65;;;1.10;93.40;;;;;;5015388;28;20029;-90
2021/01/22 01:48:17;;;;;;;90.35;39.42;;;1.10;93.50;;;;;;5016152;28;20069;-91
2021/01/22 01:50:43;;;;;;;100.35;45.65;;;1.10;93.40;;;;;;5015107;28;20136;-90
2021/01/22 01:53:09;;;;;;;85.20;39.22;;;1.10;93.40;;;;;;5016264;28;20117;-90
2021/01/22 01:55:36;;;;;;;100.90;41.47;;;1.10;93.40;;;;;;5015122;28;20024;-89
2021/01/22 01:58:04;;;;;;;99.63;43.78;;;1.10;93.40;;;;;;5015090;28;20501;-90
2021/01/22 02:00:31;;;;;;;94.30;40.65;;;1.00;93.50;;;;;;5014969;28;20037;-89
2021/01/22 02:02:56;;;;;;;78.30;33.05;;;1.10;93.50;;;;;;5016086;28;20036;-89
2021/01/22 02:05:22;;;;;;;91.85;36.80;;;1.10;93.20;;;;;;5015113;28;20029;-89
2021/01/22 02:07:48;;;;;;;79.93;34.35;;;1.10;93.20;;;;;;5014740;28;20053;-89
2021/01/22 02:10:14;;;;;;;95.50;41.38;;;1.10;93.10;;;;;;5014993;28;20026;-89
2021/01/22 02:12:41;;;;;;;78.40;33.40;;;1.10;93.10;;;;;;5014916;28;20054;-89
2021/01/22 02:15:11;;;;;;;77.68;35.13;;;1.10;93.10;;;;;;5015885;28;20029;-89
2021/01/22 02:17:38;;;;;;;89.20;36.22;;;1.10;93.00;;;;;;5015875;28;20022;-89
2021/01/22 02:20:31;;;;;;;103.63;41.40;;;1.10;93.10;;;;;;5015637;28;20499;-89
2021/01/22 02:22:57;;;;;;;83.68;34.10;;;0.90;93.40;;;;;;5014583;28;20022;-89
2021/01/22 02:25:40;;;;;;;94.28;38.28;;;0.90;93.50;;;;;;5014702;28;20061;-89
2021/01/22 02:28:09;;;;;;;77.30;33.72;;;0.90;93.40;;;;;;5014545;28;20029;-89
2021/01/22 02:30:35;;;;;;;91.20;37.45;;;0.90;93.50;;;;;;5014409;28;20057;-89
2021/01/22 02:33:05;;;;;;;75.50;31.52;;;0.90;93.40;;;;;;5014418;28;20045;-89
2021/01/22 02:35:33;;;;;;;92.20;38.15;;;1.00;93.20;;;;;;5015464;28;20022;-89
2021/01/22 02:38:02;;;;;;;115.32;47.28;;;0.90;93.40;;;;;;5014402;28;20033;-89
2021/01/22 02:40:30;;;;;;;77.10;34.90;;;0.90;93.60;;;;;;5014281;28;20037;-89
2021/01/22 02:42:56;;;;;;;66.80;29.45;;;0.90;93.40;;;;;;5014209;28;20492;-90
2021/01/22 02:45:23;;;;;;;83.78;37.08;;;0.90;93.10;;;;;;5014563;28;20087;-89
2021/01/22 02:47:51;;;;;;;90.80;39.00;;;0.90;93.30;;;;;;5015314;28;20025;-89
2021/01/22 02:50:28;;;;;;;93.97;41.33;;;0.90;93.20;;;;;;5013955;28;20064;-89
2021/01/22 02:52:57;;;;;;;85.65;37.60;;;0.90;93.40;;;;;;5014155;28;20029;-89
2021/01/22 02:55:23;;;;;;;88.00;41.22;;;0.90;93.20;;;;;;5014172;28;20049;-90
2021/01/22 02:57:56;;;;;;;86.85;40.65;;;0.90;93.20;;;;;;5013967;28;20546;-90
2021/01/22 03:00:28;;;;;;;91.35;41.83;;;0.90;93.20;;;;;;5014003;28;20033;-89
2021/01/22 03:03:11;;;;;;;81.50;38.03;;;0.90;93.10;;;;;;5013929;28;20029;-89
2021/01/22 03:05:38;;;;;;;71.45;34.50;;;0.90;93.10;;;;;;5014130;28;20087;-89
2021/01/22 03:08:14;;;;;;;95.90;43.00;;;0.90;93.00;;;;;;5013831;28;20022;-89
2021/01/22 03:10:41;;;;;;;85.63;38.72;;;0.90;92.80;;;;;;5013814;28;20030;-89
2021/01/22 03:13:07;;;;;;;114.60;51.65;;;1.00;92.70;;;;;;5013730;28;20404;-88
2021/01/22 03:15:35;;;;;;;87.50;39.60;;;0.80;92.90;;;;;;5013247;28;20025;-89
2021/01/22 03:18:15;;;;;;;81.82;38.92;;;0.80;93.20;;;;;;5013444;28;20427;-88
2021/01/22 03:20:42;;;;;;;96.07;43.75;;;0.80;92.90;;;;;;5013622;28;20112;-88
2021/01/22 03:23:08;;;;;;;98.53;45.85;;;0.80;93.00;;;;;;5013450;28;20033;-89
2021/01/22 03:25:34;;;;;;;89.45;41.90;;;0.80;93.00;;;;;;5014022;28;20034;-89
2021/01/22 03:28:00;;;;;;;89.22;39.92;;;0.90;92.90;;;;;;5013544;28;20036;-90
2021/01/22 03:30:26;;;;;;;87.38;42.20;;;0.80;93.40;;;;;;5013433;28;20025;-89
2021/01/22 03:32:51;;;;;;;69.22;33.45;;;0.80;93.20;;;;;;5014085;28;20033;-89
2021/01/22 03:35:18;;;;;;;84.35;41.80;;;0.80;93.00;;;;;;5013497;28;20030;-89
2021/01/22 03:37:45;;;;;;;85.65;39.72;;;0.70;93.10;;;;;;5013213;28;20052;-88
2021/01/22 03:40:11;;;;;;;70.95;34.20;;;0.70;93.40;;;;;;5014824;28;20030;-89
2021/01/22 03:42:36;;;;;;;79.28;37.55;;;0.70;93.20;;;;;;5013514;28;20056;-90
2021/01/22 03:45:03;;;;;;;70.70;33.85;;;0.70;93.20;;;;;;5013385;28;20033;-89
2021/01/22 03:47:28;;;;;;;91.60;40.88;;;0.80;93.00;;;;;;5014317;28;20049;-89
2021/01/22 03:49:54;;;;;;;82.53;37.47;;;0.70;93.20;;;;;;5013006;28;20081;-89
2021/01/22 03:52:20;;;;;;;102.93;44.28;;;0.70;93.40;;;;;;5013091;28;20022;-89
2021/01/22 03:54:45;;;;;;;79.80;35.53;;;0.60;93.50;;;;;;5013217;28;20111;-89
2021/01/22 03:57:11;;;;;;;96.25;42.55;;;0.70;93.60;;;;;;5014318;28;20048;-89
2021/01/22 03:59:37;;;;;;;104.32;44.40;;;0.60;93.80;;;;;;5014515;28;20037;-89
2021/01/22 04:02:02;;;;;;;88.65;38.08;;;0.60;93.70;;;;;;5014413;28;20096;-90
2021/01/22 04:04:28;;;;;;;84.07;38.75;;;0.70;93.70;;;;;;5013113;28;20022;-89
2021/01/22 04:06:54;;;;;;;83.95;38.67;;;0.70;93.60;;;;;;5014305;28;20100;-90
2021/01/22 04:09:19;;;;;;;98.78;40.60;;;0.70;93.70;;;;;;5013079;28;20026;-89
2021/01/22 04:11:45;;;;;;;100.93;41.90;;;0.70;93.70;;;;;;5013393;28;20065;-89
2021/01/22 04:14:11;;;;;;;81.95;33.83;;;0.60;93.80;;;;;;5013158;28;20026;-90
2021/01/22 04:16:36;;;;;;;98.15;40.15;;;0.70;93.70;;;;;;5013146;28;20026;-90
2021/01/22 04:19:02;;;;;;;119.50;47.55;;;0.70;93.70;;;;;;5012945;28;20037;-90
2021/01/22 04:21:28;;;;;;;99.00;42.95;;;0.60;93.70;;;;;;5012883;28;20415;-90
2021/01/22 04:23:53;;;;;;;125.22;48.50;;;0.60;93.90;;;;;;5013184;28;20079;-90
2021/01/22 04:26:19;;;;;;;101.50;38.17;;;0.60;93.90;;;;;;5013754;28;20029;-90
2021/01/22 04:28:45;;;;;;;110.68;40.58;;;0.60;94.10;;;;;;5016469;28;20030;-89
2021/01/22 04:31:10;;;;;;;106.78;41.42;;;0.60;94.10;;;;;;5016414;28;20376;-90
2021/01/22 04:33:36;;;;;;;86.13;35.30;;;0.60;94.10;;;;;;5016908;28;20022;-91
2021/01/22 04:36:02;;;;;;;91.63;37.25;;;0.70;93.80;;;;;;5016830;28;20093;-91
2021/01/22 04:38:27;;;;;;;128.45;45.10;;;0.70;93.70;;;;;;5017571;28;20403;-87
2021/01/22 04:40:56;;;;;;;144.63;48.67;;;0.60;94.00;;;;;;5015589;28;20056;-90
2021/01/22 04:43:22;;;;;;;111.75;43.88;;;0.60;94.30;;;;;;5019904;28;20030;-92
2021/01/22 04:45:48;;;;;;;134.18;48.75;;;0.60;94.40;;;;;;5016920;28;20028;-92
2021/01/22 04:48:15;;;;;;;110.68;42.53;;;0.70;94.30;;;;;;5017120;28;20125;-90
2021/01/22 04:50:41;;;;;;;124.85;45.13;;;0.70;94.40;;;;;;5015954;28;20049;-90
2021/01/22 04:53:11;;;;;;;104.20;37.30;;;0.70;94.30;;;;;;5029122;28;20029;-90
2021/01/22 04:55:43;;;;;;;105.78;40.63;;;0.70;93.90;;;;;;5036061;28;20021;-90
2021/01/22 04:58:10;;;;;;;106.43;41.35;;;0.70;94.00;;;;;;5036548;28;20117;-90
2021/01/22 05:00:36;;;;;;;107.00;39.63;;;0.70;94.00;;;;;;5035988;28;20029;-93
2021/01/22 05:03:02;;;;;;;123.68;46.78;;;0.70;93.80;;;;;;5037155;28;20055;-91
2021/01/22 05:05:28;;;;;;;99.20;38.25;;;0.80;93.80;;;;;;5035859;28;20032;-90
2021/01/22 05:07:54;;;;;;;92.93;38.00;;;0.80;93.80;;;;;;5035931;28;20022;-90
2021/01/22 05:10:19;;;;;;;105.78;39.47;;;0.80;93.90;;;;;;5035802;28;20022;-91
2021/01/22 05:12:45;;;;;;;92.38;35.75;;;0.80;93.60;;;;;;5036022;28;20021;-91
2021/01/22 05:15:22;;;;;;;122.88;47.70;;;0.80;93.50;;;;;;5036010;28;20108;-89
2021/01/22 05:17:56;;;;;;;146.02;51.88;;;0.80;93.70;;;;;;5035659;28;20021;-90
2021/01/22 05:20:32;;;;;;;115.28;43.38;;;0.70;94.00;;;;;;5035626;28;20122;-90
2021/01/22 05:22:59;;;;;;;95.97;38.13;;;0.70;94.10;;;;;;5035766;28;20022;-90
2021/01/22 05:25:25;;;;;;;95.90;35.92;;;0.80;94.10;;;;;;5035374;28;20112;-90
2021/01/22 05:27:53;;;;;;;103.05;39.38;;;0.80;94.00;;;;;;5035471;28;20360;-90
2021/01/22 05:30:19;;;;;;;103.40;38.83;;;0.80;93.90;;;;;;5035596;28;20075;-90
2021/01/22 05:32:45;;;;;;;128.90;48.03;;;0.80;93.80;;;;;;5035627;28;20048;-90
2021/01/22 05:35:12;;;;;;;83.00;33.95;;;0.80;93.90;;;;;;5036731;28;20396;-91
2021/01/22 05:37:53;;;;;;;97.70;37.95;;;0.80;93.80;;;;;;5034971;28;20022;-90
2021/01/22 05:40:19;;;;;;;92.93;37.75;;;0.80;93.80;;;;;;5031106;28;20472;-90
2021/01/22 05:42:53;;;;;;;124.38;44.15;;;0.80;93.70;;;;;;5016516;28;20018;-89
2021/01/22 05:45:39;;;;;;;126.25;46.22;;;0.80;93.90;;;;;;5015190;28;20022;-94
2021/01/22 06:02:31;;;;;;;122.93;42.78;;;0.70;94.20;;;;;;5392956;23;20130;-81
2021/01/22 06:05:15;;;;;;;96.88;37.85;;;0.70;94.50;;;;;;4956944;29;20595;-84
2021/01/22 06:07:45;;;;;;;105.47;39.80;;;0.70;94.30;;;;;;4956800;29;20020;-84
2021/01/22 06:10:15;;;;;;;116.13;43.33;;;0.80;94.30;;;;;;4956792;29;20019;-84
2021/01/22 06:12:47;;;;;;;110.35;42.30;;;0.80;94.20;;;;;;4956847;29;20029;-84
2021/01/22 06:15:15;;;;;;;99.13;37.88;;;0.80;94.20;;;;;;4956770;29;20698;-84
2021/01/22 06:17:46;;;;;;;88.30;34.72;;;0.80;94.10;;;;;;4939395;29;20150;-84
2021/01/22 06:20:15;;;;;;;93.53;37.55;;;0.80;94.00;;;;;;4956799;29;20027;-85
2021/01/22 06:22:46;;;;;;;133.57;44.50;;;0.80;94.00;;;;;;4939605;29;20035;-83
2021/01/22 06:25:12;;;;;;;136.02;46.25;;;0.70;94.10;;;;;;4939039;29;20113;-84
2021/01/22 06:27:40;;;;;;;120.50;45.22;;;0.70;94.40;;;;;;4956898;29;20074;-83
2021/01/22 06:30:08;;;;;;;127.18;45.70;;;0.70;94.50;;;;;;4956382;29;20027;-84
2021/01/22 06:32:37;;;;;;;115.95;43.35;;;0.70;94.50;;;;;;4956499;29;20023;-81
2021/01/22 06:35:03;;;;;;;123.30;43.30;;;0.70;94.60;;;;;;4956384;29;20034;-82
2021/01/22 06:37:30;;;;;;;90.53;37.03;;;0.60;94.60;;;;;;4956227;29;20061;-82
2021/01/22 06:39:57;;;;;;;112.05;41.17;;;0.80;94.60;;;;;;4956419;29;20027;-82
2021/01/22 06:42:23;;;;;;;99.93;36.67;;;0.80;94.50;;;;;;4955840;29;20055;-84
2021/01/22 06:44:49;;;;;;;88.97;35.42;;;0.80;94.30;;;;;;4956538;29;20027;-85
2021/01/22 06:47:15;;;;;;;102.70;39.72;;;0.90;94.10;;;;;;4938883;29;20592;-84
2021/01/22 06:49:40;;;;;;;113.93;43.72;;;0.80;94.00;;;;;;4955134;28;20473;-84
2021/01/22 06:52:13;;;;;;;112.22;42.67;;;0.80;94.10;;;;;;4938671;29;20038;-84
2021/01/22 06:54:57;;;;;;;84.57;33.03;;;0.80;94.20;;;;;;4938792;29;20166;-82
2021/01/22 06:57:24;;;;;;;101.15;38.30;;;0.80;94.10;;;;;;4956170;29;20373;-84
2021/01/22 06:59:50;;;;;;;101.72;39.95;;;0.80;94.10;;;;;;4938755;29;20027;-83
2021/01/22 07:02:38;;;;;;;93.93;36.55;;;0.80;94.10;;;;;;4955379;29;20175;-82
2021/01/22 07:05:23;;;;;;;96.43;36.80;;;0.90;94.00;;;;;;4938624;29;20038;-83
2021/01/22 07:07:49;;;;;;;108.93;41.00;;;0.90;93.90;;;;;;4938522;29;20057;-84
2021/01/22 07:10:15;;;;;;;121.65;49.45;;;1.00;93.80;;;;;;4939052;29;20027;-82
2021/01/22 07:12:47;;;;;;;97.97;38.58;;;0.90;93.80;;;;;;4938639;29;20023;-82
2021/01/22 07:15:21;;;;;;;141.90;51.58;;;1.00;93.80;;;;;;4955686;29;20042;-83
2021/01/22 07:18:01;;;;;;;105.07;41.08;;;0.90;93.80;;;;;;4955642;29;20038;-84
2021/01/22 07:20:28;;;;;;;124.45;51.45;;;1.00;93.80;;;;;;4938606;29;20110;-84
2021/01/22 07:23:00;;;;;;;122.50;49.42;;;1.00;93.80;;;;;;4938566;29;20019;-84
2021/01/22 07:25:40;;;;;;;112.40;44.83;;;1.00;93.80;;;;;;4955562;29;20027;-84
2021/01/22 07:28:26;;;;;;;105.88;43.33;;;1.00;93.70;;;;;;4938469;29;20031;-85
2021/01/22 07:30:52;;;;;;;104.78;41.95;;;1.10;93.50;;;;;;4955057;29;20043;-84
2021/01/22 07:33:34;;;;;;;121.38;47.65;;;0.90;93.60;;;;;;4938439;29;20027;-84
2021/01/22 07:36:19;;;;;;;84.55;35.80;;;0.90;93.80;;;;;;4955921;29;20032;-85
2021/01/22 07:38:51;;;;;;;85.45;37.15;;;1.00;93.70;;;;;;4938347;29;20055;-84
2021/01/22 07:41:21;;;;;;;95.53;40.50;;;1.00;93.60;;;;;;4938417;29;20023;-84
2021/01/22 07:43:59;;;;;;;93.22;40.90;;;1.10;93.50;;;;;;4955614;29;20027;-85
2021/01/22 07:46:25;;;;;;;82.15;36.33;;;1.00;93.40;;;;;;4938398;29;20508;-85
2021/01/22 07:48:50;;;;;;;97.05;42.10;;;1.10;93.40;;;;;;4938241;29;20036;-85
2021/01/22 07:51:33;;;;;;;83.75;35.65;;;1.10;93.30;;;;;;4938162;29;20020;-85
2021/01/22 07:54:01;;;;;;;80.15;36.47;;;1.20;93.10;;;;;;4955526;29;20051;-84
2021/01/22 07:56:40;;;;;;;91.53;42.47;;;1.20;93.20;;;;;;4955474;29;20027;-85
2021/01/22 07:59:07;;;;;;;84.88;38.42;;;1.20;93.00;;;;;;4955773;29;20028;-85
2021/01/22 08:01:34;;;;;;;83.30;38.58;;;1.20;93.10;;;;;;4940621;29;20043;-85
2021/01/22 08:04:00;;;;;;;67.88;29.77;;;1.20;93.00;;;;;;4942071;29;20035;-85
2021/01/22 08:06:25;;;;;;;66.72;31.05;;;1.30;93.00;;;;;;4959347;29;20034;-85
2021/01/22 08:09:05;;;;;;;76.10;36.15;;;1.30;92.80;;;;;;4942031;29;20031;-85
2021/01/22 08:11:30;;;;;;;74.43;36.65;;;1.30;92.70;;;;;;4959450;29;20039;-84
2021/01/22 08:13:56;;;;;;;95.22;44.40;;;1.40;92.60;;;;;;4959118;29;20066;-85
2021/01/22 08:16:23;;;;;;;88.70;43.75;;;1.40;92.50;;;;;;4959079;29;20034;-85
2021/01/22 08:18:49;;;;;;;89.65;47.03;;;1.40;92.50;;;;;;4958930;29;20058;-84
2021/01/22 08:21:15;;;;;;;71.97;33.30;;;1.40;92.60;;;;;;4959038;29;20472;-85
2021/01/22 08:23:42;;;;;;;88.40;41.90;;;1.50;92.50;;;;;;4958580;29;20046;-84
2021/01/22 08:26:12;;;;;;;83.47;38.20;;;1.40;92.20;;;;;;4958834;29;20023;-85
2021/01/22 08:28:41;;;;;;;69.30;35.92;;;1.40;92.40;;;;;;4941643;29;20114;-84
2021/01/22 08:31:08;;;;;;;63.05;30.10;;;1.30;92.30;;;;;;4958824;29;20031;-85
2021/01/22 08:33:35;;;;;;;63.72;31.65;;;1.30;92.70;;;;;;4941745;29;20078;-84
2021/01/22 08:36:01;;;;;;;68.95;33.15;;;1.40;92.60;;;;;;4958672;29;20050;-85
2021/01/22 08:38:27;;;;;;;60.15;30.70;;;1.50;92.40;;;;;;4941439;29;20517;-85
2021/01/22 08:40:53;;;;;;;61.85;29.13;;;1.50;92.40;;;;;;4958612;29;20054;-85
2021/01/22 08:43:19;;;;;;;60.97;30.70;;;1.60;92.30;;;;;;4941397;29;20078;-85
2021/01/22 08:46:10;;;;;;;64.50;31.90;;;1.50;92.10;;;;;;4941748;29;20114;-85
2021/01/22 08:48:37;;;;;;;54.45;28.30;;;1.50;91.80;;;;;;4941284;29;20120;-85
2021/01/22 08:51:04;;;;;;;55.55;28.33;;;1.60;92.00;;;;;;4958748;29;20111;-84
2021/01/22 08:53:30;;;;;;;57.35;28.63;;;1.50;92.30;;;;;;4958424;29;20458;-84
2021/01/22 08:56:11;;;;;;;51.47;27.45;;;1.50;92.00;;;;;;4941214;29;20082;-85
2021/01/22 08:58:56;;;;;;;49.58;25.73;;;1.50;92.00;;;;;;4941214;29;20035;-85
2021/01/22 09:01:21;;;;;;;51.65;25.40;;;1.50;91.90;;;;;;4940788;29;20103;-85
2021/01/22 09:03:47;;;;;;;54.25;27.92;;;1.60;92.00;;;;;;4940985;29;20054;-85
2021/01/22 09:06:13;;;;;;;49.75;26.98;;;1.70;91.90;;;;;;4958246;29;20066;-85
2021/01/22 09:08:54;;;;;;;56.03;28.25;;;1.70;91.90;;;;;;4940821;29;20469;-85
2021/01/22 09:11:36;;;;;;;62.47;30.40;;;1.70;91.90;;;;;;4940895;28;20019;-85
2021/01/22 09:14:02;;;;;;;57.42;29.42;;;1.70;91.90;;;;;;4957934;29;20147;-85
2021/01/22 09:16:27;;;;;;;73.47;37.60;;;1.70;91.90;;;;;;4940837;29;20118;-85
2021/01/22 09:19:00;;;;;;;71.18;36.75;;;1.70;91.80;;;;;;4940656;29;20035;-85
2021/01/22 09:21:26;;;;;;;60.90;32.13;;;1.60;92.00;;;;;;4940367;29;20028;-85
2021/01/22 09:23:52;;;;;;;67.40;35.53;;;1.70;92.00;;;;;;4940744;29;20086;-85
2021/01/22 09:26:18;;;;;;;63.17;32.10;;;1.60;92.00;;;;;;4957807;29;20426;-85
2021/01/22 09:28:43;;;;;;;75.75;38.75;;;1.70;91.90;;;;;;4940569;29;20037;-85
2021/01/22 09:31:09;;;;;;;67.88;38.08;;;1.70;91.80;;;;;;4940828;29;20030;-84
2021/01/22 09:33:35;;;;;;;59.38;31.35;;;1.80;91.80;;;;;;4957628;29;20027;-85
2021/01/22 09:36:00;;;;;;;56.05;28.50;;;1.90;91.70;;;;;;4940501;29;20031;-84
2021/01/22 09:38:26;;;;;;;57.33;30.58;;;2.00;91.80;;;;;;4940409;29;20371;-84
2021/01/22 09:40:53;;;;;;;65.45;34.17;;;2.10;91.70;;;;;;4957866;29;20124;-84
2021/01/22 09:43:18;;;;;;;66.22;35.30;;;2.10;91.40;;;;;;4940159;29;20027;-84
2021/01/22 09:45:44;;;;;;;96.30;52.72;;;2.20;91.50;;;;;;4940305;29;20023;-85
2021/01/22 09:48:14;;;;;;;134.70;79.53;;;2.20;91.20;;;;;;4940214;29;20428;-84
2021/01/22 09:50:39;;;;;;;146.27;80.93;;;2.30;91.20;;;;;;4957454;29;20373;-84
2021/01/22 09:53:05;;;;;;;165.05;81.18;;;2.20;91.20;;;;;;4940104;29;20019;-84
2021/01/22 09:55:31;;;;;;;98.55;51.70;;;2.20;91.10;;;;;;4940049;29;20608;-84
2021/01/22 09:57:56;;;;;;;78.63;42.05;;;2.30;90.90;;;;;;4940100;29;20519;-84
2021/01/22 10:00:22;;;;;;;84.85;44.25;;;2.30;91.10;;;;;;4957521;29;20069;-84
2021/01/22 10:02:48;;;;;;;74.28;36.10;;;2.20;90.80;;;;;;4939806;29;20780;-84
2021/01/22 10:05:14;;;;;;;59.92;30.85;;;2.20;91.10;;;;;;4957144;29;20035;-84
2021/01/22 10:07:40;;;;;;;105.68;51.67;;;2.30;91.20;;;;;;4939794;29;20027;-84
2021/01/22 10:10:06;;;;;;;111.70;53.90;;;2.20;90.60;;;;;;4956968;29;20055;-84
2021/01/22 10:12:32;;;;;;;77.72;41.03;;;2.30;90.80;;;;;;4939652;29;20035;-84
2021/01/22 10:14:58;;;;;;;65.53;34.58;;;2.20;90.80;;;;;;4939763;29;20019;-84
2021/01/22 10:17:24;;;;;;;59.20;33.28;;;2.30;91.30;;;;;;4939778;29;20031;-84
2021/01/22 10:19:49;;;;;;;67.95;37.42;;;2.30;90.90;;;;;;4956890;29;20102;-84
2021/01/22 10:22:15;;;;;;;73.68;41.75;;;2.30;90.70;;;;;;4956900;29;20499;-83
2021/01/22 10:24:42;;;;;;;65.20;37.95;;;2.20;90.60;;;;;;4956719;28;20032;-84
2021/01/22 10:27:08;;;;;;;61.42;35.42;;;2.30;90.80;;;;;;4939466;29;20548;-84
2021/01/22 10:29:34;;;;;;;76.55;41.70;;;2.40;90.70;;;;;;4956628;29;20049;-84
2021/01/22 10:31:59;;;;;;;72.50;40.42;;;2.30;90.20;;;;;;4956277;29;20117;-84
2021/01/22 10:34:25;;;;;;;77.90;44.20;;;2.40;90.60;;;;;;4939312;29;20027;-84
2021/01/22 10:36:51;;;;;;;64.93;36.45;;;2.40;90.30;;;;;;4939376;29;20027;-84
2021/01/22 10:39:16;;;;;;;57.70;31.88;;;2.30;90.00;;;;;;4956526;29;20023;-84
2021/01/22 10:41:42;;;;;;;59.30;32.10;;;2.40;90.70;;;;;;4939264;29;20034;-84
2021/01/22 10:44:08;;;;;;;56.75;32.40;;;2.50;90.30;;;;;;4939124;29;20027;-84
2021/01/22 10:46:33;;;;;;;63.03;33.53;;;2.40;90.10;;;;;;4939357;29;20074;-84
2021/01/22 10:49:00;;;;;;;54.75;31.08;;;2.30;90.10;;;;;;4956553;29;20023;-84
2021/01/22 10:51:25;;;;;;;57.05;30.88;;;2.40;90.30;;;;;;4956263;29;20480;-84
2021/01/22 10:53:51;;;;;;;50.22;28.05;;;2.50;90.30;;;;;;4956512;29;20019;-84
2021/01/22 10:56:17;;;;;;;52.83;29.10;;;2.50;90.40;;;;;;4938977;29;20027;-85
2021/01/22 10:58:43;;;;;;;55.47;29.60;;;2.60;90.40;;;;;;4938948;29;20027;-85
2021/01/22 11:01:08;;;;;;;67.70;34.67;;;2.60;90.10;;;;;;4955811;29;20065;-85
2021/01/22 11:03:34;;;;;;;59.10;32.35;;;2.50;89.90;;;;;;4938742;29;20033;-84
2021/01/22 11:06:00;;;;;;;59.28;31.98;;;2.50;89.90;;;;;;4938708;29;20042;-84
2021/01/22 11:08:25;;;;;;;59.40;33.30;;;2.50;90.10;;;;;;4956218;29;20019;-84
2021/01/22 11:10:51;;;;;;;58.35;34.03;;;2.40;90.10;;;;;;4955764;29;20030;-84
2021/01/22 11:13:18;;;;;;;52.75;29.83;;;2.30;90.10;;;;;;4955841;29;20024;-84
2021/01/22 11:15:44;;;;;;;57.20;31.08;;;2.30;90.40;;;;;;4938624;29;20103;-84
2021/01/22 11:18:10;;;;;;;45.13;27.33;;;2.40;90.40;;;;;;4955794;29;20102;-85
2021/01/22 11:20:37;;;;;;;56.38;31.88;;;2.50;90.50;;;;;;4938531;29;20540;-84
2021/01/22 11:23:03;;;;;;;51.55;30.02;;;2.40;90.20;;;;;;4938393;29;20474;-85
2021/01/22 11:25:28;;;;;;;75.68;38.15;;;2.40;90.30;;;;;;4955308;29;20031;-84
2021/01/22 11:27:54;;;;;;;59.90;33.50;;;2.40;90.20;;;;;;4955536;29;20023;-85
2021/01/22 11:30:20;;;;;;;51.22;29.83;;;2.40;90.20;;;;;;4938443;29;20023;-85
2021/01/22 11:32:46;;;;;;;49.30;27.77;;;2.40;90.30;;;;;;4955908;29;20078;-84
2021/01/22 11:35:12;;;;;;;52.17;29.15;;;2.60;90.30;;;;;;4937886;29;20051;-85
2021/01/22 11:37:39;;;;;;;58.28;33.30;;;2.60;90.30;;;;;;4938324;29;20023;-85
2021/01/22 11:40:07;;;;;;;64.82;37.95;;;2.60;90.10;;;;;;4938454;29;20050;-85
2021/01/22 11:42:33;;;;;;;58.42;34.47;;;2.60;89.60;;;;;;4954730;29;20429;-85
2021/01/22 11:44:59;;;;;;;61.60;35.42;;;2.50;90.00;;;;;;4955505;29;20027;-85
2021/01/22 11:47:25;;;;;;;60.63;32.80;;;2.50;90.00;;;;;;4955539;29;20030;-85
2021/01/22 11:49:51;;;;;;;58.97;35.25;;;2.60;90.10;;;;;;4938122;29;20027;-85
2021/01/22 11:52:16;;;;;;;57.03;31.85;;;2.40;89.50;;;;;;4938246;29;20027;-85
2021/01/22 11:54:43;;;;;;;63.20;35.50;;;2.50;90.20;;;;;;4938172;29;20019;-85
2021/01/22 11:57:09;;;;;;;68.72;40.78;;;2.50;90.10;;;;;;4938225;29;20023;-85
2021/01/22 11:59:35;;;;;;;86.18;51.80;;;2.50;90.10;;;;;;4938102;29;20122;-85
2021/01/22 12:02:00;;;;;;;82.35;48.15;;;2.30;90.10;;;;;;4955152;29;20055;-83
2021/01/22 12:04:27;;;;;;;77.38;45.47;;;2.30;90.30;;;;;;4938174;29;20031;-85
2021/01/22 12:06:53;;;;;;;61.13;37.28;;;2.30;90.20;;;;;;4955589;29;20027;-85
2021/01/22 12:09:20;;;;;;;58.97;34.28;;;2.30;90.30;;;;;;4955185;29;20027;-85
2021/01/22 12:11:45;;;;;;;71.95;39.97;;;2.40;90.40;;;;;;4938231;29;20026;-85
2021/01/22 12:14:11;;;;;;;66.65;38.30;;;2.40;90.30;;;;;;4954916;29;20393;-85
2021/01/22 12:16:37;;;;;;;65.70;36.65;;;2.40;90.20;;;;;;4938032;29;20385;-84
2021/01/22 12:19:03;;;;;;;57.25;32.70;;;2.40;90.30;;;;;;4955193;29;20819;-83
2021/01/22 12:21:29;;;;;;;64.43;36.72;;;2.50;90.30;;;;;;4938081;29;20035;-85
2021/01/22 12:23:55;;;;;;;67.15;37.35;;;2.50;90.10;;;;;;4937824;29;20024;-85
2021/01/22 12:26:21;;;;;;;68.05;37.53;;;2.60;90.00;;;;;;4955536;29;20358;-85
2021/01/22 12:28:49;;;;;;;61.70;35.67;;;2.60;90.00;;;;;;4955236;29;20090;-85
2021/01/22 12:31:15;;;;;;;60.78;35.42;;;2.60;89.90;;;;;;4937732;29;20058;-85
2021/01/22 12:33:41;;;;;;;60.10;34.80;;;2.40;89.70;;;;;;4937881;29;20023;-85
2021/01/22 12:36:07;;;;;;;51.83;30.27;;;2.50;90.00;;;;;;4955185;29;20132;-85
2021/01/22 12:38:34;;;;;;;55.33;31.95;;;2.40;90.10;;;;;;4954996;29;20476;-85
2021/01/22 12:41:03;;;;;;;64.38;37.53;;;2.40;90.00;;;;;;4937865;29;20055;-85
2021/01/22 12:43:29;;;;;;;68.30;39.67;;;2.30;89.80;;;;;;4937888;29;20032;-85
2021/01/22 12:45:55;;;;;;;64.43;35.70;;;2.10;90.20;;;;;;4937851;29;20037;-85
2021/01/22 12:48:21;;;;;;;61.03;35.22;;;2.10;90.40;;;;;;4957203;28;20035;-85
2021/01/22 12:50:47;;;;;;;60.65;35.83;;;2.20;90.40;;;;;;4941243;29;20047;-85